sensor_id;sensor_type;location;lat;lon;timestamp;temperature;humidity
72277;SHT30;61204;49.980;8.358;2024-03-23T00:53:46;8.80;87.68
72277;SHT30;61204;49.980;8.358;2024-03-23T00:56:11;8.80;87.59
72277;SHT30;61204;49.980;8.358;2024-03-23T00:58:39;8.66;88.28
72277;SHT30;61204;49.980;8.358;2024-03-23T01:01:07;8.62;88.67
72277;SHT30;61204;49.980;8.358;2024-03-23T01:03:32;8.66;88.94
72277;SHT30;61204;49.980;8.358;2024-03-23T01:06:02;8.65;88.99
72277;SHT30;61204;49.980;8.358;2024-03-23T01:08:31;8.69;88.97
72277;SHT30;61204;49.980;8.358;2024-03-23T01:10:59;8.86;88.34
72277;SHT30;61204;49.980;8.358;2024-03-23T01:13:26;8.77;88.44
72277;SHT30;61204;49.980;8.358;2024-03-23T01:15:55;8.80;88.72
72277;SHT30;61204;49.980;8.358;2024-03-23T01:18:23;8.93;88.43
72277;SHT30;61204;49.980;8.358;2024-03-23T01:20:51;9.03;87.78
72277;SHT30;61204;49.980;8.358;2024-03-23T01:23:17;9.08;87.58
72277;SHT30;61204;49.980;8.358;2024-03-23T01:25:43;9.13;87.37
72277;SHT30;61204;49.980;8.358;2024-03-23T01:28:10;9.08;87.43
72277;SHT30;61204;49.980;8.358;2024-03-23T01:30:36;9.10;87.71
72277;SHT30;61204;49.980;8.358;2024-03-23T01:33:02;9.03;87.92
72277;SHT30;61204;49.980;8.358;2024-03-23T01:35:28;8.99;88.36
72277;SHT30;61204;49.980;8.358;2024-03-23T01:37:56;8.75;88.72
72277;SHT30;61204;49.980;8.358;2024-03-23T01:40:22;8.60;89.30
72277;SHT30;61204;49.980;8.358;2024-03-23T01:43:05;8.41;90.01
72277;SHT30;61204;49.980;8.358;2024-03-23T01:45:38;8.41;90.88
72277;SHT30;61204;49.980;8.358;2024-03-23T01:48:04;8.40;90.66
72277;SHT30;61204;49.980;8.358;2024-03-23T01:50:31;8.32;90.88
72277;SHT30;61204;49.980;8.358;2024-03-23T01:53:04;8.35;91.21
72277;SHT30;61204;49.980;8.358;2024-03-23T01:55:33;8.62;90.53
72277;SHT30;61204;49.980;8.358;2024-03-23T01:57:58;8.76;90.20
72277;SHT30;61204;49.980;8.358;2024-03-23T02:00:25;8.99;89.20
72277;SHT30;61204;49.980;8.358;2024-03-23T02:02:53;9.05;88.90
72277;SHT30;61204;49.980;8.358;2024-03-23T02:05:18;9.05;89.01
72277;SHT30;61204;49.980;8.358;2024-03-23T02:07:44;9.11;88.82
72277;SHT30;61204;49.980;8.358;2024-03-23T02:10:10;9.15;88.65
72277;SHT30;61204;49.980;8.358;2024-03-23T02:12:39;9.08;88.76
72277;SHT30;61204;49.980;8.358;2024-03-23T02:15:05;9.05;89.25
72277;SHT30;61204;49.980;8.358;2024-03-23T02:17:35;9.10;89.14
72277;SHT30;61204;49.980;8.358;2024-03-23T02:20:04;9.10;88.99
72277;SHT30;61204;49.980;8.358;2024-03-23T02:22:38;8.99;89.15
72277;SHT30;61204;49.980;8.358;2024-03-23T02:25:05;8.94;89.21
72277;SHT30;61204;49.980;8.358;2024-03-23T02:27:32;8.94;90.04
72277;SHT30;61204;49.980;8.358;2024-03-23T02:30:00;8.94;89.84
72277;SHT30;61204;49.980;8.358;2024-03-23T02:32:25;9.10;89.36
72277;SHT30;61204;49.980;8.358;2024-03-23T02:34:51;9.27;88.23
72277;SHT30;61204;49.980;8.358;2024-03-23T02:37:17;9.31;87.92
72277;SHT30;61204;49.980;8.358;2024-03-23T02:39:42;9.30;88.00
72277;SHT30;61204;49.980;8.358;2024-03-23T02:42:08;9.25;88.16
72277;SHT30;61204;49.980;8.358;2024-03-23T02:44:33;9.27;88.11
72277;SHT30;61204;49.980;8.358;2024-03-23T02:46:59;9.14;88.19
72277;SHT30;61204;49.980;8.358;2024-03-23T02:49:25;8.94;88.67
72277;SHT30;61204;49.980;8.358;2024-03-23T02:51:54;8.80;89.97
72277;SHT30;61204;49.980;8.358;2024-03-23T02:54:19;8.77;90.14
72277;SHT30;61204;49.980;8.358;2024-03-23T02:56:45;8.72;90.64
72277;SHT30;61204;49.980;8.358;2024-03-23T02:59:10;8.63;90.96
72277;SHT30;61204;49.980;8.358;2024-03-23T03:01:36;8.65;91.02
72277;SHT30;61204;49.980;8.358;2024-03-23T03:04:01;8.69;91.09
72277;SHT30;61204;49.980;8.358;2024-03-23T03:06:27;8.83;90.63
72277;SHT30;61204;49.980;8.358;2024-03-23T03:08:56;8.80;90.38
72277;SHT30;61204;49.980;8.358;2024-03-23T03:11:21;8.68;90.94
72277;SHT30;61204;49.980;8.358;2024-03-23T03:13:47;8.72;90.85
72277;SHT30;61204;49.980;8.358;2024-03-23T03:16:12;8.80;90.93
72277;SHT30;61204;49.980;8.358;2024-03-23T03:18:38;8.83;90.99
72277;SHT30;61204;49.980;8.358;2024-03-23T03:21:06;8.80;90.70
72277;SHT30;61204;49.980;8.358;2024-03-23T03:23:39;9.00;90.42
72277;SHT30;61204;49.980;8.358;2024-03-23T03:26:06;9.03;89.72
72277;SHT30;61204;49.980;8.358;2024-03-23T03:28:32;9.05;89.97
72277;SHT30;61204;49.980;8.358;2024-03-23T03:31:00;9.21;89.57
72277;SHT30;61204;49.980;8.358;2024-03-23T03:33:27;9.15;89.10
72277;SHT30;61204;49.980;8.358;2024-03-23T03:35:53;9.04;89.78
72277;SHT30;61204;49.980;8.358;2024-03-23T03:38:19;9.14;89.82
72277;SHT30;61204;49.980;8.358;2024-03-23T03:40:45;9.17;89.61
72277;SHT30;61204;49.980;8.358;2024-03-23T03:43:13;9.18;89.69
72277;SHT30;61204;49.980;8.358;2024-03-23T03:45:39;9.22;89.29
72277;SHT30;61204;49.980;8.358;2024-03-23T03:48:05;9.28;88.58
72277;SHT30;61204;49.980;8.358;2024-03-23T03:50:34;9.36;88.13
72277;SHT30;61204;49.980;8.358;2024-03-23T03:52:59;9.45;86.92
72277;SHT30;61204;49.980;8.358;2024-03-23T03:55:27;9.46;86.85
72277;SHT30;61204;49.980;8.358;2024-03-23T03:57:53;9.49;86.58
72277;SHT30;61204;49.980;8.358;2024-03-23T04:00:19;9.45;86.38
72277;SHT30;61204;49.980;8.358;2024-03-23T04:02:47;9.46;86.65
72277;SHT30;61204;49.980;8.358;2024-03-23T04:05:12;9.46;86.87
72277;SHT30;61204;49.980;8.358;2024-03-23T04:07:38;9.35;87.32
72277;SHT30;61204;49.980;8.358;2024-03-23T04:10:04;9.14;86.96
72277;SHT30;61204;49.980;8.358;2024-03-23T04:12:33;8.93;85.40
72277;SHT30;61204;49.980;8.358;2024-03-23T04:14:59;8.62;85.47
72277;SHT30;61204;49.980;8.358;2024-03-23T04:17:27;8.35;85.49
72277;SHT30;61204;49.980;8.358;2024-03-23T04:19:57;8.08;86.28
72277;SHT30;61204;49.980;8.358;2024-03-23T04:22:24;7.85;88.00
72277;SHT30;61204;49.980;8.358;2024-03-23T04:24:56;7.72;89.00
72277;SHT30;61204;49.980;8.358;2024-03-23T04:27:23;7.63;89.58
72277;SHT30;61204;49.980;8.358;2024-03-23T04:29:54;7.58;89.87
72277;SHT30;61204;49.980;8.358;2024-03-23T04:32:20;7.58;90.15
72277;SHT30;61204;49.980;8.358;2024-03-23T04:34:47;7.54;90.27
72277;SHT30;61204;49.980;8.358;2024-03-23T04:37:13;7.47;91.11
72277;SHT30;61204;49.980;8.358;2024-03-23T04:39:41;7.47;91.12
72277;SHT30;61204;49.980;8.358;2024-03-23T04:42:09;7.49;91.25
72277;SHT30;61204;49.980;8.358;2024-03-23T04:44:34;7.51;91.27
72277;SHT30;61204;49.980;8.358;2024-03-23T04:47:01;7.44;91.59
72277;SHT30;61204;49.980;8.358;2024-03-23T04:49:26;7.47;90.80
72277;SHT30;61204;49.980;8.358;2024-03-23T04:51:52;7.47;90.55
72277;SHT30;61204;49.980;8.358;2024-03-23T04:54:19;7.51;89.46
72277;SHT30;61204;49.980;8.358;2024-03-23T04:56:45;7.48;90.29
72277;SHT30;61204;49.980;8.358;2024-03-23T04:59:11;7.44;89.50
72277;SHT30;61204;49.980;8.358;2024-03-23T05:01:37;7.47;88.53
72277;SHT30;61204;49.980;8.358;2024-03-23T05:04:04;7.49;88.53
72277;SHT30;61204;49.980;8.358;2024-03-23T05:06:30;7.47;88.80
72277;SHT30;61204;49.980;8.358;2024-03-23T05:08:56;7.48;89.22
72277;SHT30;61204;49.980;8.358;2024-03-23T05:11:21;7.51;88.72
72277;SHT30;61204;49.980;8.358;2024-03-23T05:13:47;7.55;89.01
72277;SHT30;61204;49.980;8.358;2024-03-23T05:16:12;7.54;89.13
72277;SHT30;61204;49.980;8.358;2024-03-23T05:18:40;7.58;89.11
72277;SHT30;61204;49.980;8.358;2024-03-23T05:21:06;7.56;88.58
72277;SHT30;61204;49.980;8.358;2024-03-23T05:23:33;7.58;88.05
72277;SHT30;61204;49.980;8.358;2024-03-23T05:26:01;7.59;87.97
72277;SHT30;61204;49.980;8.358;2024-03-23T05:28:28;7.56;87.27
72277;SHT30;61204;49.980;8.358;2024-03-23T05:30:54;7.56;85.71
72277;SHT30;61204;49.980;8.358;2024-03-23T05:33:20;7.55;86.38
72277;SHT30;61204;49.980;8.358;2024-03-23T05:35:47;7.54;85.70
72277;SHT30;61204;49.980;8.358;2024-03-23T05:38:22;7.48;86.30
72277;SHT30;61204;49.980;8.358;2024-03-23T05:41:00;7.47;85.55
72277;SHT30;61204;49.980;8.358;2024-03-23T05:43:28;7.44;86.11
72277;SHT30;61204;49.980;8.358;2024-03-23T05:45:58;7.38;85.13
72277;SHT30;61204;49.980;8.358;2024-03-23T05:48:26;7.44;84.60
72277;SHT30;61204;49.980;8.358;2024-03-23T05:50:52;7.40;84.96
72277;SHT30;61204;49.980;8.358;2024-03-23T05:53:19;7.38;84.92
72277;SHT30;61204;49.980;8.358;2024-03-23T05:55:48;7.31;85.25
72277;SHT30;61204;49.980;8.358;2024-03-23T05:58:19;7.31;85.03
72277;SHT30;61204;49.980;8.358;2024-03-23T06:00:45;7.24;84.32
72277;SHT30;61204;49.980;8.358;2024-03-23T06:03:11;7.18;83.82
72277;SHT30;61204;49.980;8.358;2024-03-23T06:05:38;7.20;83.87
72277;SHT30;61204;49.980;8.358;2024-03-23T06:08:04;7.21;83.96
72277;SHT30;61204;49.980;8.358;2024-03-23T06:10:30;7.20;82.81
72277;SHT30;61204;49.980;8.358;2024-03-23T06:12:58;7.20;81.63
72277;SHT30;61204;49.980;8.358;2024-03-23T06:15:26;7.20;81.88
72277;SHT30;61204;49.980;8.358;2024-03-23T06:17:56;7.21;81.88
72277;SHT30;61204;49.980;8.358;2024-03-23T06:20:22;7.15;82.18
72277;SHT30;61204;49.980;8.358;2024-03-23T06:22:47;7.15;82.80
72277;SHT30;61204;49.980;8.358;2024-03-23T06:25:13;7.15;81.63
72277;SHT30;61204;49.980;8.358;2024-03-23T06:27:39;7.13;81.07
72277;SHT30;61204;49.980;8.358;2024-03-23T06:30:06;7.18;81.62
72277;SHT30;61204;49.980;8.358;2024-03-23T06:32:35;7.23;81.12
72277;SHT30;61204;49.980;8.358;2024-03-23T06:35:00;7.15;81.29
72277;SHT30;61204;49.980;8.358;2024-03-23T06:37:33;7.13;80.89
72277;SHT30;61204;49.980;8.358;2024-03-23T06:39:58;7.17;81.82
72277;SHT30;61204;49.980;8.358;2024-03-23T06:42:26;7.08;82.32
72277;SHT30;61204;49.980;8.358;2024-03-23T06:44:51;7.07;82.78
72277;SHT30;61204;49.980;8.358;2024-03-23T06:47:17;7.03;82.27
72277;SHT30;61204;49.980;8.358;2024-03-23T06:49:43;7.01;82.12
72277;SHT30;61204;49.980;8.358;2024-03-23T06:52:08;6.87;79.50
72277;SHT30;61204;49.980;8.358;2024-03-23T06:54:34;6.89;80.16
72277;SHT30;61204;49.980;8.358;2024-03-23T06:56:59;6.92;78.71
72277;SHT30;61204;49.980;8.358;2024-03-23T06:59:25;6.90;79.56
72277;SHT30;61204;49.980;8.358;2024-03-23T07:01:50;6.93;79.26
72277;SHT30;61204;49.980;8.358;2024-03-23T07:04:16;6.96;79.68
72277;SHT30;61204;49.980;8.358;2024-03-23T07:06:43;6.99;79.06
72277;SHT30;61204;49.980;8.358;2024-03-23T07:09:09;7.04;79.78
72277;SHT30;61204;49.980;8.358;2024-03-23T07:11:35;7.03;79.72
72277;SHT30;61204;49.980;8.358;2024-03-23T07:14:01;7.27;79.20
72277;SHT30;61204;49.980;8.358;2024-03-23T07:16:28;7.62;78.36
72277;SHT30;61204;49.980;8.358;2024-03-23T07:18:54;7.91;78.17
72277;SHT30;61204;49.980;8.358;2024-03-23T07:21:19;7.97;77.57
72277;SHT30;61204;49.980;8.358;2024-03-23T07:23:48;7.82;76.44
72277;SHT30;61204;49.980;8.358;2024-03-23T07:26:13;7.69;76.70
72277;SHT30;61204;49.980;8.358;2024-03-23T07:28:43;7.44;75.57
72277;SHT30;61204;49.980;8.358;2024-03-23T07:31:11;7.45;76.04
72277;SHT30;61204;49.980;8.358;2024-03-23T07:33:47;7.42;75.12
72277;SHT30;61204;49.980;8.358;2024-03-23T07:36:14;7.41;75.96
72277;SHT30;61204;49.980;8.358;2024-03-23T07:38:43;7.61;75.49
72277;SHT30;61204;49.980;8.358;2024-03-23T07:41:19;7.77;76.36
72277;SHT30;61204;49.980;8.358;2024-03-23T07:43:47;7.85;76.46
72277;SHT30;61204;49.980;8.358;2024-03-23T07:46:15;7.52;76.66
72277;SHT30;61204;49.980;8.358;2024-03-23T07:48:41;7.56;77.68
72277;SHT30;61204;49.980;8.358;2024-03-23T07:51:15;7.52;77.77
72277;SHT30;61204;49.980;8.358;2024-03-23T07:53:44;7.15;77.46
72277;SHT30;61204;49.980;8.358;2024-03-23T07:56:14;7.25;77.95
72277;SHT30;61204;49.980;8.358;2024-03-23T07:58:41;7.40;77.80
72277;SHT30;61204;49.980;8.358;2024-03-23T08:01:13;7.35;77.87
72277;SHT30;61204;49.980;8.358;2024-03-23T08:03:42;7.45;79.36
72277;SHT30;61204;49.980;8.358;2024-03-23T08:06:20;7.69;79.11
72277;SHT30;61204;49.980;8.358;2024-03-23T08:08:50;7.94;76.06
72277;SHT30;61204;49.980;8.358;2024-03-23T08:11:32;8.24;76.18
72277;SHT30;61204;49.980;8.358;2024-03-23T08:14:00;8.00;76.26
72277;SHT30;61204;49.980;8.358;2024-03-23T08:16:27;7.63;77.89
72277;SHT30;61204;49.980;8.358;2024-03-23T08:18:54;7.79;78.11
72277;SHT30;61204;49.980;8.358;2024-03-23T08:21:24;8.17;77.62
72277;SHT30;61204;49.980;8.358;2024-03-23T08:23:51;7.93;75.38
72277;SHT30;61204;49.980;8.358;2024-03-23T08:26:19;7.91;75.84
72277;SHT30;61204;49.980;8.358;2024-03-23T08:28:49;7.83;76.06
72277;SHT30;61204;49.980;8.358;2024-03-23T08:31:15;7.77;76.58
72277;SHT30;61204;49.980;8.358;2024-03-23T08:33:41;7.79;76.17
72277;SHT30;61204;49.980;8.358;2024-03-23T08:36:14;7.97;76.84
72277;SHT30;61204;49.980;8.358;2024-03-23T08:38:40;8.13;75.81
72277;SHT30;61204;49.980;8.358;2024-03-23T08:41:10;8.28;75.36
72277;SHT30;61204;49.980;8.358;2024-03-23T08:43:41;8.59;74.26
72277;SHT30;61204;49.980;8.358;2024-03-23T08:46:12;8.53;73.15
72277;SHT30;61204;49.980;8.358;2024-03-23T08:48:46;8.55;73.35
72277;SHT30;61204;49.980;8.358;2024-03-23T08:51:16;8.38;72.62
72277;SHT30;61204;49.980;8.358;2024-03-23T08:53:45;8.35;71.78
72277;SHT30;61204;49.980;8.358;2024-03-23T08:56:15;8.46;72.75
72277;SHT30;61204;49.980;8.358;2024-03-23T08:58:41;8.63;72.31
72277;SHT30;61204;49.980;8.358;2024-03-23T09:01:08;8.45;72.33
72277;SHT30;61204;49.980;8.358;2024-03-23T09:03:36;8.60;72.62
72277;SHT30;61204;49.980;8.358;2024-03-23T09:06:13;8.83;71.42
72277;SHT30;61204;49.980;8.358;2024-03-23T09:08:40;9.10;70.01
72277;SHT30;61204;49.980;8.358;2024-03-23T09:11:09;9.28;69.87
72277;SHT30;61204;49.980;8.358;2024-03-23T09:13:37;9.42;68.18
72277;SHT30;61204;49.980;8.358;2024-03-23T09:16:06;9.11;66.76
72277;SHT30;61204;49.980;8.358;2024-03-23T09:18:40;9.14;65.40
72277;SHT30;61204;49.980;8.358;2024-03-23T09:21:12;9.25;67.33
72277;SHT30;61204;49.980;8.358;2024-03-23T09:23:44;9.45;66.75
72277;SHT30;61204;49.980;8.358;2024-03-23T09:26:10;9.69;63.49
72277;SHT30;61204;49.980;8.358;2024-03-23T09:28:36;9.52;63.57
72277;SHT30;61204;49.980;8.358;2024-03-23T09:31:07;9.73;62.85
72277;SHT30;61204;49.980;8.358;2024-03-23T09:33:39;10.38;63.24
72277;SHT30;61204;49.980;8.358;2024-03-23T09:36:06;10.92;61.33
72277;SHT30;61204;49.980;8.358;2024-03-23T09:38:33;10.72;59.35
72277;SHT30;61204;49.980;8.358;2024-03-23T09:40:59;11.03;60.17
72277;SHT30;61204;49.980;8.358;2024-03-23T09:43:25;10.58;60.27
72277;SHT30;61204;49.980;8.358;2024-03-23T09:45:52;10.66;59.00
72277;SHT30;61204;49.980;8.358;2024-03-23T09:48:20;10.37;59.48
72277;SHT30;61204;49.980;8.358;2024-03-23T09:50:48;10.20;58.57
72277;SHT30;61204;49.980;8.358;2024-03-23T09:53:14;10.14;59.82
72277;SHT30;61204;49.980;8.358;2024-03-23T09:55:42;9.94;58.59
72277;SHT30;61204;49.980;8.358;2024-03-23T09:58:13;9.94;58.39
72277;SHT30;61204;49.980;8.358;2024-03-23T10:00:40;10.20;58.25
72277;SHT30;61204;49.980;8.358;2024-03-23T10:03:06;10.15;58.21
72277;SHT30;61204;49.980;8.358;2024-03-23T10:05:33;9.93;56.62
72277;SHT30;61204;49.980;8.358;2024-03-23T10:08:21;9.85;56.90
72277;SHT30;61204;49.980;8.358;2024-03-23T10:10:47;9.82;56.77
72277;SHT30;61204;49.980;8.358;2024-03-23T10:13:25;9.77;57.70
72277;SHT30;61204;49.980;8.358;2024-03-23T10:15:56;9.73;57.05
72277;SHT30;61204;49.980;8.358;2024-03-23T10:18:28;9.98;56.09
72277;SHT30;61204;49.980;8.358;2024-03-23T10:21:10;9.97;56.94
72277;SHT30;61204;49.980;8.358;2024-03-23T10:23:44;9.77;57.74
72277;SHT30;61204;49.980;8.358;2024-03-23T10:26:21;9.69;57.67
72277;SHT30;61204;49.980;8.358;2024-03-23T10:28:59;9.69;57.79
72277;SHT30;61204;49.980;8.358;2024-03-23T10:31:37;8.40;63.84
72277;SHT30;61204;49.980;8.358;2024-03-23T10:34:12;7.23;68.90
72277;SHT30;61204;49.980;8.358;2024-03-23T10:36:38;6.85;70.30
72277;SHT30;61204;49.980;8.358;2024-03-23T10:39:10;6.40;73.68
72277;SHT30;61204;49.980;8.358;2024-03-23T10:41:41;6.16;73.98
72277;SHT30;61204;49.980;8.358;2024-03-23T10:44:07;6.25;75.52
72277;SHT30;61204;49.980;8.358;2024-03-23T10:46:33;6.16;74.00
72277;SHT30;61204;49.980;8.358;2024-03-23T10:48:59;6.07;77.29
72277;SHT30;61204;49.980;8.358;2024-03-23T10:51:25;6.07;76.06
72277;SHT30;61204;49.980;8.358;2024-03-23T10:53:53;6.27;72.62
72277;SHT30;61204;49.980;8.358;2024-03-23T10:56:22;6.28;73.39
72277;SHT30;61204;49.980;8.358;2024-03-23T10:58:49;6.45;74.01
72277;SHT30;61204;49.980;8.358;2024-03-23T11:01:15;6.44;74.06
72277;SHT30;61204;49.980;8.358;2024-03-23T11:03:46;6.32;74.69
72277;SHT30;61204;49.980;8.358;2024-03-23T11:06:39;6.35;76.71
72277;SHT30;61204;49.980;8.358;2024-03-23T11:09:42;6.52;77.78
72277;SHT30;61204;49.980;8.358;2024-03-23T11:12:26;6.40;78.02
72277;SHT30;61204;49.980;8.358;2024-03-23T11:15:11;6.52;78.26
72277;SHT30;61204;49.980;8.358;2024-03-23T11:17:40;6.41;78.11
72277;SHT30;61204;49.980;8.358;2024-03-23T11:20:07;6.52;77.41
72277;SHT30;61204;49.980;8.358;2024-03-23T11:22:45;6.75;74.92
72277;SHT30;61204;49.980;8.358;2024-03-23T11:25:21;6.99;72.95
72277;SHT30;61204;49.980;8.358;2024-03-23T11:27:52;7.27;69.56
72277;SHT30;61204;49.980;8.358;2024-03-23T11:30:27;7.59;71.77
72277;SHT30;61204;49.980;8.358;2024-03-23T11:32:58;7.83;69.86
72277;SHT30;61204;49.980;8.358;2024-03-23T11:35:38;8.69;72.32
72277;SHT30;61204;49.980;8.358;2024-03-23T11:38:14;9.90;70.97
72277;SHT30;61204;49.980;8.358;2024-03-23T11:40:48;10.44;65.96
72277;SHT30;61204;49.980;8.358;2024-03-23T11:43:17;10.49;64.98
72277;SHT30;61204;49.980;8.358;2024-03-23T11:48:15;10.58;64.18
72277;SHT30;61204;49.980;8.358;2024-03-23T11:50:48;9.87;65.27
72277;SHT30;61204;49.980;8.358;2024-03-23T11:53:19;9.94;63.37
72277;SHT30;61204;49.980;8.358;2024-03-23T11:55:55;10.18;63.47
72277;SHT30;61204;49.980;8.358;2024-03-23T11:58:27;10.04;61.21
72277;SHT30;61204;49.980;8.358;2024-03-23T12:00:57;10.20;62.19
72277;SHT30;61204;49.980;8.358;2024-03-23T12:03:32;9.91;59.19
72277;SHT30;61204;49.980;8.358;2024-03-23T12:06:01;10.00;59.85
72277;SHT30;61204;49.980;8.358;2024-03-23T12:11:11;10.58;58.02
72277;SHT30;61204;49.980;8.358;2024-03-23T12:13:39;11.03;59.03
72277;SHT30;61204;49.980;8.358;2024-03-23T12:18:44;11.27;56.16
72277;SHT30;61204;49.980;8.358;2024-03-23T12:21:14;11.03;55.38
72277;SHT30;61204;49.980;8.358;2024-03-23T12:23:41;11.01;55.31
72277;SHT30;61204;49.980;8.358;2024-03-23T12:26:10;11.07;54.01
72277;SHT30;61204;49.980;8.358;2024-03-23T12:28:39;11.25;53.64
72277;SHT30;61204;49.980;8.358;2024-03-23T12:31:05;10.96;53.22
72277;SHT30;61204;49.980;8.358;2024-03-23T12:33:33;10.97;54.66
72277;SHT30;61204;49.980;8.358;2024-03-23T12:35:59;10.94;55.55
72277;SHT30;61204;49.980;8.358;2024-03-23T12:38:24;11.27;55.17
72277;SHT30;61204;49.980;8.358;2024-03-23T12:40:50;11.66;54.58
72277;SHT30;61204;49.980;8.358;2024-03-23T12:43:17;11.72;52.81
72277;SHT30;61204;49.980;8.358;2024-03-23T12:45:49;11.90;51.84
72277;SHT30;61204;49.980;8.358;2024-03-23T12:48:18;11.77;51.51
72277;SHT30;61204;49.980;8.358;2024-03-23T12:50:44;11.30;52.30
72277;SHT30;61204;49.980;8.358;2024-03-23T12:53:10;8.62;66.92
72277;SHT30;61204;49.980;8.358;2024-03-23T12:55:35;6.56;77.23
72277;SHT30;61204;49.980;8.358;2024-03-23T12:58:01;5.79;83.03
72277;SHT30;61204;49.980;8.358;2024-03-23T13:00:27;5.58;86.35
72277;SHT30;61204;49.980;8.358;2024-03-23T13:02:53;5.37;86.71
72277;SHT30;61204;49.980;8.358;2024-03-23T13:05:18;5.38;86.99
72277;SHT30;61204;49.980;8.358;2024-03-23T13:07:44;5.66;86.22
72277;SHT30;61204;49.980;8.358;2024-03-23T13:10:10;5.92;84.70
72277;SHT30;61204;49.980;8.358;2024-03-23T13:12:35;6.31;84.61
72277;SHT30;61204;49.980;8.358;2024-03-23T13:15:01;6.65;83.21
72277;SHT30;61204;49.980;8.358;2024-03-23T13:17:27;7.11;82.51
72277;SHT30;61204;49.980;8.358;2024-03-23T13:19:55;7.52;82.35
72277;SHT30;61204;49.980;8.358;2024-03-23T13:22:21;7.86;78.89
72277;SHT30;61204;49.980;8.358;2024-03-23T13:24:47;8.20;81.51
72277;SHT30;61204;49.980;8.358;2024-03-23T13:27:15;8.76;79.98
72277;SHT30;61204;49.980;8.358;2024-03-23T13:29:41;7.80;76.73
72277;SHT30;61204;49.980;8.358;2024-03-23T13:32:11;7.76;77.88
72277;SHT30;61204;49.980;8.358;2024-03-23T13:34:36;7.79;76.51
72277;SHT30;61204;49.980;8.358;2024-03-23T13:37:02;7.82;76.45
72277;SHT30;61204;49.980;8.358;2024-03-23T13:39:28;8.18;76.84
72277;SHT30;61204;49.980;8.358;2024-03-23T13:41:55;8.34;75.97
72277;SHT30;61204;49.980;8.358;2024-03-23T13:44:23;8.42;76.52
72277;SHT30;61204;49.980;8.358;2024-03-23T13:46:49;8.56;75.28
72277;SHT30;61204;49.980;8.358;2024-03-23T13:49:31;8.72;74.04
72277;SHT30;61204;49.980;8.358;2024-03-23T13:52:00;8.51;73.64
72277;SHT30;61204;49.980;8.358;2024-03-23T13:54:28;8.70;75.94
72277;SHT30;61204;49.980;8.358;2024-03-23T13:56:56;8.96;73.45
72277;SHT30;61204;49.980;8.358;2024-03-23T13:59:26;9.30;72.54
72277;SHT30;61204;49.980;8.358;2024-03-23T14:01:55;9.34;70.92
72277;SHT30;61204;49.980;8.358;2024-03-23T14:04:23;9.05;69.27
72277;SHT30;61204;49.980;8.358;2024-03-23T14:06:50;8.93;70.40
72277;SHT30;61204;49.980;8.358;2024-03-23T14:09:15;9.27;69.54
72277;SHT30;61204;49.980;8.358;2024-03-23T14:11:46;9.24;67.69
72277;SHT30;61204;49.980;8.358;2024-03-23T14:14:14;9.24;68.02
72277;SHT30;61204;49.980;8.358;2024-03-23T14:16:48;9.42;65.29
72277;SHT30;61204;49.980;8.358;2024-03-23T14:19:13;9.28;63.03
72277;SHT30;61204;49.980;8.358;2024-03-23T14:21:39;9.45;64.51
72277;SHT30;61204;49.980;8.358;2024-03-23T14:24:05;9.49;61.77
72277;SHT30;61204;49.980;8.358;2024-03-23T14:26:31;9.70;63.11
72277;SHT30;61204;49.980;8.358;2024-03-23T14:28:58;10.13;62.21
72277;SHT30;61204;49.980;8.358;2024-03-23T14:31:28;10.62;58.92
72277;SHT30;61204;49.980;8.358;2024-03-23T14:33:53;10.41;58.10
72277;SHT30;61204;49.980;8.358;2024-03-23T14:36:19;10.46;58.47
72277;SHT30;61204;49.980;8.358;2024-03-23T14:38:48;11.03;58.62
72277;SHT30;61204;49.980;8.358;2024-03-23T14:41:14;10.92;60.19
72277;SHT30;61204;49.980;8.358;2024-03-23T14:43:40;10.60;60.29
72277;SHT30;61204;49.980;8.358;2024-03-23T14:46:16;10.97;61.42
72277;SHT30;61204;49.980;8.358;2024-03-23T14:48:43;11.42;60.80
72277;SHT30;61204;49.980;8.358;2024-03-23T14:51:11;11.17;60.37
72277;SHT30;61204;49.980;8.358;2024-03-23T14:53:44;11.80;57.12
72277;SHT30;61204;49.980;8.358;2024-03-23T14:56:11;11.82;56.40
72277;SHT30;61204;49.980;8.358;2024-03-23T14:58:41;11.62;56.70
72277;SHT30;61204;49.980;8.358;2024-03-23T15:01:08;11.38;56.07
72277;SHT30;61204;49.980;8.358;2024-03-23T15:03:38;10.83;57.26
72277;SHT30;61204;49.980;8.358;2024-03-23T15:06:05;10.70;58.19
72277;SHT30;61204;49.980;8.358;2024-03-23T15:08:34;10.50;58.33
72277;SHT30;61204;49.980;8.358;2024-03-23T15:11:02;10.14;60.70
72277;SHT30;61204;49.980;8.358;2024-03-23T15:13:38;9.82;62.15
72277;SHT30;61204;49.980;8.358;2024-03-23T15:16:08;9.76;61.91
72277;SHT30;61204;49.980;8.358;2024-03-23T15:18:35;9.77;60.47
72277;SHT30;61204;49.980;8.358;2024-03-23T15:21:03;9.79;62.52
72277;SHT30;61204;49.980;8.358;2024-03-23T15:23:33;9.63;62.22
72277;SHT30;61204;49.980;8.358;2024-03-23T15:26:01;9.53;63.00
72277;SHT30;61204;49.980;8.358;2024-03-23T15:28:28;8.88;67.37
72277;SHT30;61204;49.980;8.358;2024-03-23T15:31:08;8.59;68.29
72277;SHT30;61204;49.980;8.358;2024-03-23T15:33:36;8.35;69.55
72277;SHT30;61204;49.980;8.358;2024-03-23T15:36:08;8.34;71.00
72277;SHT30;61204;49.980;8.358;2024-03-23T15:38:35;8.48;68.33
72277;SHT30;61204;49.980;8.358;2024-03-23T15:41:00;8.81;66.33
72277;SHT30;61204;49.980;8.358;2024-03-23T15:43:29;8.97;66.00
72277;SHT30;61204;49.980;8.358;2024-03-23T15:46:02;9.43;64.23
72277;SHT30;61204;49.980;8.358;2024-03-23T15:48:30;9.20;64.33
72277;SHT30;61204;49.980;8.358;2024-03-23T15:51:02;9.48;63.44
72277;SHT30;61204;49.980;8.358;2024-03-23T15:53:34;10.07;62.16
72277;SHT30;61204;49.980;8.358;2024-03-23T15:56:03;9.36;64.52
72277;SHT30;61204;49.980;8.358;2024-03-23T15:58:33;8.87;66.48
72277;SHT30;61204;49.980;8.358;2024-03-23T16:01:08;8.49;67.88
72277;SHT30;61204;49.980;8.358;2024-03-23T16:03:37;8.55;68.74
72277;SHT30;61204;49.980;8.358;2024-03-23T16:06:08;8.73;67.10
72277;SHT30;61204;49.980;8.358;2024-03-23T16:08:34;8.53;67.14
72277;SHT30;61204;49.980;8.358;2024-03-23T16:11:02;8.48;67.17
72277;SHT30;61204;49.980;8.358;2024-03-23T16:13:30;8.51;67.93
72277;SHT30;61204;49.980;8.358;2024-03-23T16:16:01;8.30;66.03
72277;SHT30;61204;49.980;8.358;2024-03-23T16:18:29;8.40;66.34
72277;SHT30;61204;49.980;8.358;2024-03-23T16:20:56;8.30;67.72
72277;SHT30;61204;49.980;8.358;2024-03-23T16:23:24;8.49;66.64
72277;SHT30;61204;49.980;8.358;2024-03-23T16:25:52;8.77;65.64
72277;SHT30;61204;49.980;8.358;2024-03-23T16:28:30;8.94;61.75
72277;SHT30;61204;49.980;8.358;2024-03-23T16:31:09;8.99;61.09
72277;SHT30;61204;49.980;8.358;2024-03-23T16:33:37;9.07;60.94
72277;SHT30;61204;49.980;8.358;2024-03-23T16:36:09;9.07;61.44
72277;SHT30;61204;49.980;8.358;2024-03-23T16:38:38;8.83;63.23
72277;SHT30;61204;49.980;8.358;2024-03-23T16:41:08;8.76;65.40
72277;SHT30;61204;49.980;8.358;2024-03-23T16:43:44;8.68;66.67
72277;SHT30;61204;49.980;8.358;2024-03-23T16:46:13;8.58;64.71
72277;SHT30;61204;49.980;8.358;2024-03-23T16:48:43;8.45;65.26
72277;SHT30;61204;49.980;8.358;2024-03-23T16:51:11;8.44;64.29
72277;SHT30;61204;49.980;8.358;2024-03-23T16:53:39;8.48;63.64